Time;durP1;ratioP1;P1;durP2;ratioP2;P2;SDS_P1;SDS_P2;PMS_P1;PMS_P2;Temp;Humidity;BMP_temperature;BMP_pressure;BME280_temperature;BME280_humidity;BME280_pressure;Samples;Min_cycle;Max_cycle;Signal;HPM_P1;HPM_P2
2023/03/06 00:00:19;;;;;;;3.25;1.63;;;;;;;;;;5056076;28;20507;-75
2023/03/06 00:02:45;;;;;;;3.90;1.75;;;;;;;;;;5055562;28;20037;-76
2023/03/06 00:05:12;;;;;;;3.33;1.70;;;;;;;;;;5055415;28;20152;-76
2023/03/06 00:07:38;;;;;;;2.85;1.90;;;;;;;;;;5055077;28;20041;-76
2023/03/06 00:10:04;;;;;;;4.97;2.00;;;;;;;;;;5053860;28;20471;-76
2023/03/06 00:12:30;;;;;;;3.17;1.80;;;;;;;;;;5054790;28;20384;-76
2023/03/06 00:14:56;;;;;;;3.80;1.90;;;;;;;;;;5055004;28;20151;-76
2023/03/06 00:17:22;;;;;;;2.78;1.70;;;;;;;;;;5054851;28;20107;-76
2023/03/06 00:19:48;;;;;;;5.78;1.90;;;;;;;;;;5053727;28;20081;-76
2023/03/06 00:22:15;;;;;;;2.83;1.60;;;;;;;;;;5054156;28;20048;-76
2023/03/06 00:24:41;;;;;;;4.38;1.90;;;;;;;;;;5054493;28;20099;-76
2023/03/06 00:27:09;;;;;;;3.65;1.85;;;;;;;;;;5054753;28;20435;-76
2023/03/06 00:29:35;;;;;;;5.82;2.20;;;;;;;;;;5055173;28;20091;-76
2023/03/06 00:32:01;;;;;;;2.88;1.63;;;;;;;;;;5054858;28;20044;-76
2023/03/06 00:34:27;;;;;;;4.55;2.22;;;;;;;;;;5054480;28;20405;-76
2023/03/06 00:36:53;;;;;;;4.88;2.00;;;;;;;;;;5054289;28;20033;-76
2023/03/06 00:39:20;;;;;;;5.15;2.00;;;;;;;;;;5051435;28;20034;-76
2023/03/06 00:41:46;;;;;;;3.95;1.67;;;;;;;;;;5041220;28;20040;-76
2023/03/06 00:44:12;;;;;;;3.33;1.60;;;;;;;;;;5054496;28;20080;-76
2023/03/06 00:46:39;;;;;;;2.40;1.58;;;;;;;;;;5054632;28;20045;-76
2023/03/06 00:49:05;;;;;;;2.55;1.85;;;;;;;;;;5054369;28;20037;-76
2023/03/06 00:51:31;;;;;;;7.00;1.80;;;;;;;;;;5053193;28;20053;-76
2023/03/06 00:53:57;;;;;;;4.93;1.50;;;;;;;;;;5053494;28;20090;-76
2023/03/06 00:56:23;;;;;;;3.65;1.60;;;;;;;;;;5053838;28;20130;-76
2023/03/06 00:58:49;;;;;;;2.17;1.50;;;;;;;;;;5054005;28;20080;-76
2023/03/06 01:01:15;;;;;;;2.47;1.50;;;;;;;;;;5053692;28;20045;-76
2023/03/06 01:03:41;;;;;;;3.33;1.25;;;;;;;;;;5054578;28;20056;-76
2023/03/06 01:06:07;;;;;;;1.80;1.17;;;;;;;;;;5057567;28;20037;-76
2023/03/06 01:08:34;;;;;;;2.05;1.08;;;;;;;;;;5058301;28;20403;-76
2023/03/06 01:11:00;;;;;;;2.05;1.40;;;;;;;;;;5054661;28;20124;-77
2023/03/06 01:13:27;;;;;;;2.60;1.48;;;;;;;;;;5054192;28;20041;-76
2023/03/06 01:15:53;;;;;;;1.08;1.08;;;;;;;;;;5053809;28;20086;-76
2023/03/06 01:18:19;;;;;;;1.10;0.90;;;;;;;;;;5052904;28;20144;-76
2023/03/06 01:20:45;;;;;;;1.15;1.00;;;;;;;;;;5053058;28;20052;-76
2023/03/06 01:23:11;;;;;;;0.77;0.77;;;;;;;;;;5053567;28;20052;-76
2023/03/06 01:25:37;;;;;;;1.75;0.85;;;;;;;;;;5051043;28;20033;-76
2023/03/06 01:28:03;;;;;;;0.70;0.70;;;;;;;;;;5040118;28;20041;-76
2023/03/06 01:30:29;;;;;;;0.80;0.80;;;;;;;;;;5053066;28;20391;-76
2023/03/06 01:32:55;;;;;;;0.50;0.50;;;;;;;;;;5048254;28;20424;-76
2023/03/06 01:35:21;;;;;;;0.90;0.60;;;;;;;;;;5052984;28;20472;-76
2023/03/06 01:37:47;;;;;;;0.82;0.75;;;;;;;;;;5052995;28;20101;-76
2023/03/06 01:40:14;;;;;;;2.72;0.80;;;;;;;;;;5051842;28;20037;-76
2023/03/06 01:42:40;;;;;;;1.80;0.80;;;;;;;;;;5073351;28;20063;-76
2023/03/06 01:45:12;;;;;;;1.40;0.90;;;;;;;;;;5046094;28;20404;-76
2023/03/06 01:47:38;;;;;;;0.70;0.70;;;;;;;;;;5033781;28;20041;-76
2023/03/06 01:50:06;;;;;;;1.20;0.80;;;;;;;;;;5041266;28;20068;-76
2023/03/06 01:52:52;;;;;;;1.25;0.68;;;;;;;;;;5053140;28;20052;-76
2023/03/06 01:55:20;;;;;;;0.73;0.73;;;;;;;;;;5053359;28;20040;-76
2023/03/06 01:57:52;;;;;;;0.70;0.70;;;;;;;;;;5053944;28;20460;-76
2023/03/06 02:00:20;;;;;;;1.10;0.80;;;;;;;;;;5053776;28;20051;-76
2023/03/06 02:03:03;;;;;;;2.03;0.90;;;;;;;;;;5071786;28;20048;-76
2023/03/06 02:05:29;;;;;;;1.17;0.75;;;;;;;;;;5060241;28;20091;-76
2023/03/06 02:07:56;;;;;;;2.13;0.90;;;;;;;;;;5052585;28;20541;-76
2023/03/06 02:10:22;;;;;;;1.17;0.90;;;;;;;;;;5053179;28;20396;-76
2023/03/06 02:12:48;;;;;;;1.98;0.95;;;;;;;;;;5053818;28;20044;-76
2023/03/06 02:15:16;;;;;;;1.20;1.10;;;;;;;;;;5038516;28;20052;-76
2023/03/06 02:17:44;;;;;;;2.53;1.30;;;;;;;;;;5048622;28;20044;-76
2023/03/06 02:20:19;;;;;;;1.20;1.10;;;;;;;;;;5052186;28;20381;-76
2023/03/06 02:22:57;;;;;;;1.10;1.00;;;;;;;;;;5051975;28;20144;-76
2023/03/06 02:25:38;;;;;;;1.23;1.00;;;;;;;;;;5050608;28;20487;-76
2023/03/06 02:28:09;;;;;;;2.13;1.30;;;;;;;;;;5052446;28;20037;-76
2023/03/06 02:30:35;;;;;;;4.25;1.70;;;;;;;;;;5052990;28;20484;-76
2023/03/06 02:33:02;;;;;;;5.47;2.22;;;;;;;;;;5050281;28;20048;-76
2023/03/06 02:35:30;;;;;;;3.20;2.10;;;;;;;;;;5052812;28;20090;-76
2023/03/06 02:37:58;;;;;;;4.10;2.10;;;;;;;;;;5050713;28;20041;-76
2023/03/06 02:40:24;;;;;;;3.33;2.10;;;;;;;;;;5051205;28;20052;-76
2023/03/06 02:42:55;;;;;;;3.75;2.30;;;;;;;;;;5053436;28;20041;-76
2023/03/06 02:45:24;;;;;;;3.55;2.30;;;;;;;;;;5055786;28;20053;-76
2023/03/06 02:47:50;;;;;;;3.63;2.15;;;;;;;;;;5056457;28;20059;-76
2023/03/06 02:50:16;;;;;;;3.63;2.20;;;;;;;;;;5056377;28;20487;-76
2023/03/06 02:52:42;;;;;;;4.55;2.30;;;;;;;;;;5056433;28;20056;-76
2023/03/06 02:55:08;;;;;;;2.97;2.10;;;;;;;;;;5056713;28;20048;-76
2023/03/06 02:57:34;;;;;;;3.50;2.10;;;;;;;;;;5055440;28;20044;-76
2023/03/06 03:00:00;;;;;;;3.35;2.20;;;;;;;;;;5054576;28;20037;-76
2023/03/06 03:02:26;;;;;;;3.00;1.90;;;;;;;;;;5057046;28;20048;-76
2023/03/06 03:04:52;;;;;;;2.67;1.88;;;;;;;;;;5056796;28;20091;-76
2023/03/06 03:07:18;;;;;;;3.40;2.03;;;;;;;;;;5055555;28;20048;-76
2023/03/06 03:09:45;;;;;;;3.65;2.30;;;;;;;;;;5056058;28;20045;-76
2023/03/06 03:12:11;;;;;;;3.15;2.00;;;;;;;;;;5055180;28;20048;-76
2023/03/06 03:14:37;;;;;;;4.18;2.30;;;;;;;;;;5055748;28;20550;-76
2023/03/06 03:17:03;;;;;;;4.00;2.00;;;;;;;;;;5055907;28;20057;-76
2023/03/06 03:19:29;;;;;;;3.33;2.13;;;;;;;;;;5056038;28;20053;-76
2023/03/06 03:21:55;;;;;;;3.17;2.10;;;;;;;;;;5054710;28;20489;-76
2023/03/06 03:24:21;;;;;;;2.97;2.10;;;;;;;;;;5054432;28;20049;-76
2023/03/06 03:26:47;;;;;;;4.07;2.50;;;;;;;;;;5055504;28;20041;-76
2023/03/06 03:29:13;;;;;;;3.97;2.15;;;;;;;;;;5053571;28;20037;-76
2023/03/06 03:31:39;;;;;;;3.60;2.22;;;;;;;;;;5055468;28;20044;-76
2023/03/06 03:34:05;;;;;;;3.33;2.22;;;;;;;;;;5055889;28;20384;-76
2023/03/06 03:36:31;;;;;;;4.32;2.10;;;;;;;;;;5055136;28;20068;-76
2023/03/06 03:38:57;;;;;;;3.65;2.40;;;;;;;;;;5055722;28;20120;-76
2023/03/06 03:41:23;;;;;;;3.35;2.20;;;;;;;;;;5056150;28;20055;-76
2023/03/06 03:43:49;;;;;;;2.97;2.15;;;;;;;;;;5054938;28;20045;-76
2023/03/06 03:46:15;;;;;;;3.85;2.33;;;;;;;;;;5057358;28;20040;-76
2023/03/06 03:48:42;;;;;;;3.58;2.00;;;;;;;;;;5056073;28;20052;-76
2023/03/06 03:51:09;;;;;;;4.35;2.25;;;;;;;;;;5055608;28;20110;-76
2023/03/06 03:53:35;;;;;;;4.32;2.20;;;;;;;;;;5055161;28;20037;-76
2023/03/06 03:56:02;;;;;;;3.10;2.20;;;;;;;;;;5055521;28;20107;-76
2023/03/06 03:58:28;;;;;;;4.25;2.67;;;;;;;;;;5055463;28;20491;-76
2023/03/06 04:00:54;;;;;;;3.78;2.38;;;;;;;;;;5054923;28;20468;-76
2023/03/06 04:03:20;;;;;;;3.63;2.25;;;;;;;;;;5054930;28;20456;-76
2023/03/06 04:05:46;;;;;;;4.05;2.17;;;;;;;;;;5057108;28;20361;-76
2023/03/06 04:08:12;;;;;;;4.55;2.35;;;;;;;;;;5058598;28;20044;-76
2023/03/06 04:10:39;;;;;;;4.15;2.67;;;;;;;;;;5060794;28;20388;-76
2023/03/06 04:13:05;;;;;;;3.55;2.20;;;;;;;;;;5059097;28;20141;-76
2023/03/06 04:15:31;;;;;;;3.97;2.38;;;;;;;;;;5049526;28;20480;-76
2023/03/06 04:17:57;;;;;;;3.15;2.20;;;;;;;;;;5054506;28;20487;-76
2023/03/06 04:20:24;;;;;;;3.50;2.17;;;;;;;;;;5055067;28;20049;-76
2023/03/06 04:22:50;;;;;;;3.95;2.38;;;;;;;;;;5053171;28;20059;-76
2023/03/06 04:25:16;;;;;;;4.88;2.30;;;;;;;;;;5054390;28;20121;-76
2023/03/06 04:27:43;;;;;;;3.65;2.15;;;;;;;;;;5053934;28;20514;-76
2023/03/06 04:30:09;;;;;;;4.13;2.20;;;;;;;;;;5052473;28;20103;-76
2023/03/06 04:32:35;;;;;;;3.60;2.20;;;;;;;;;;5054627;28;20044;-76
2023/03/06 04:35:01;;;;;;;3.50;2.33;;;;;;;;;;5052851;28;20174;-76
2023/03/06 04:37:27;;;;;;;4.40;2.20;;;;;;;;;;5054935;28;20079;-76
2023/03/06 04:39:53;;;;;;;3.70;2.03;;;;;;;;;;5051120;28;20083;-76
2023/03/06 04:42:19;;;;;;;3.78;2.38;;;;;;;;;;5053129;28;20119;-76
2023/03/06 04:44:45;;;;;;;5.35;2.45;;;;;;;;;;5052076;28;20037;-76
2023/03/06 04:47:12;;;;;;;4.80;2.30;;;;;;;;;;5053464;28;20048;-76
2023/03/06 04:49:38;;;;;;;4.00;2.47;;;;;;;;;;5054033;28;20082;-75
2023/03/06 04:52:04;;;;;;;5.35;2.25;;;;;;;;;;5052423;28;20398;-76
2023/03/06 04:54:30;;;;;;;4.90;2.38;;;;;;;;;;5053398;28;20037;-76
2023/03/06 04:56:56;;;;;;;3.67;2.35;;;;;;;;;;5053141;28;20079;-76
2023/03/06 04:59:22;;;;;;;5.28;2.72;;;;;;;;;;5054108;28;20041;-76
2023/03/06 05:01:48;;;;;;;6.10;2.70;;;;;;;;;;5052996;28;20037;-75
2023/03/06 05:04:14;;;;;;;4.55;2.67;;;;;;;;;;5049416;28;20041;-75
2023/03/06 05:06:40;;;;;;;5.93;3.28;;;;;;;;;;5054205;28;20037;-75
2023/03/06 05:09:06;;;;;;;6.35;2.40;;;;;;;;;;5054084;28;20047;-75
2023/03/06 05:11:32;;;;;;;4.40;2.13;;;;;;;;;;5052550;28;20045;-76
2023/03/06 05:13:58;;;;;;;4.13;2.05;;;;;;;;;;5053204;28;20043;-76
2023/03/06 05:16:24;;;;;;;7.53;2.13;;;;;;;;;;5053790;28;20115;-76
2023/03/06 05:18:51;;;;;;;3.42;1.98;;;;;;;;;;5052602;28;20067;-76
2023/03/06 05:21:17;;;;;;;4.43;2.20;;;;;;;;;;5051977;28;20543;-76
2023/03/06 05:23:43;;;;;;;5.40;2.10;;;;;;;;;;5053715;28;20044;-76
2023/03/06 05:26:10;;;;;;;3.90;2.15;;;;;;;;;;5052920;28;20056;-76
2023/03/06 05:28:36;;;;;;;5.03;2.13;;;;;;;;;;5052000;28;20468;-75
2023/03/06 05:31:02;;;;;;;3.28;2.10;;;;;;;;;;5053367;28;20052;-75
2023/03/06 05:33:30;;;;;;;5.40;2.10;;;;;;;;;;5053136;28;20041;-76
2023/03/06 05:35:56;;;;;;;3.95;2.10;;;;;;;;;;5053299;28;20058;-76
2023/03/06 05:38:22;;;;;;;3.33;2.08;;;;;;;;;;5053741;28;20055;-76
2023/03/06 05:40:48;;;;;;;2.90;2.28;;;;;;;;;;5052786;28;20048;-76
2023/03/06 05:43:14;;;;;;;4.22;2.35;;;;;;;;;;5046942;28;20464;-76
2023/03/06 05:45:41;;;;;;;3.50;2.00;;;;;;;;;;5052358;28;20050;-76
2023/03/06 05:48:07;;;;;;;3.40;2.00;;;;;;;;;;5053446;28;20052;-76
2023/03/06 05:50:33;;;;;;;4.80;2.30;;;;;;;;;;5053194;28;20098;-76
2023/03/06 05:52:59;;;;;;;3.53;2.30;;;;;;;;;;5058618;28;20043;-76
2023/03/06 05:55:25;;;;;;;2.53;2.00;;;;;;;;;;5052123;28;20049;-76
2023/03/06 05:57:52;;;;;;;4.25;2.30;;;;;;;;;;5053572;28;20043;-76
2023/03/06 06:00:19;;;;;;;2.78;1.92;;;;;;;;;;5052822;28;20056;-76
2023/03/06 06:02:46;;;;;;;3.95;2.65;;;;;;;;;;5053349;28;20067;-76
2023/03/06 06:05:12;;;;;;;3.78;2.30;;;;;;;;;;5052898;28;20048;-76
2023/03/06 06:07:38;;;;;;;6.03;2.50;;;;;;;;;;5052111;28;20073;-76
2023/03/06 06:10:04;;;;;;;5.40;2.20;;;;;;;;;;5053314;28;20049;-76
2023/03/06 06:12:30;;;;;;;4.07;2.20;;;;;;;;;;5053670;28;20369;-75
2023/03/06 06:14:57;;;;;;;4.95;2.30;;;;;;;;;;5051752;28;20128;-75
2023/03/06 06:17:23;;;;;;;4.25;2.20;;;;;;;;;;5033157;28;20461;-75
2023/03/06 06:19:49;;;;;;;3.17;2.20;;;;;;;;;;5044587;28;20534;-76
2023/03/06 06:22:15;;;;;;;6.15;2.33;;;;;;;;;;5056590;28;20037;-76
2023/03/06 06:24:41;;;;;;;4.05;3.00;;;;;;;;;;5056905;28;20045;-76
2023/03/06 06:27:07;;;;;;;3.50;2.40;;;;;;;;;;5056679;28;20037;-76
2023/03/06 06:29:34;;;;;;;4.97;2.90;;;;;;;;;;5053036;28;20045;-76
2023/03/06 06:32:00;;;;;;;3.60;2.38;;;;;;;;;;5057191;28;20480;-76
2023/03/06 06:34:26;;;;;;;4.85;2.60;;;;;;;;;;5054746;28;20045;-76
2023/03/06 06:36:53;;;;;;;3.53;2.30;;;;;;;;;;5054118;28;20055;-76
2023/03/06 06:39:20;;;;;;;3.00;2.20;;;;;;;;;;5054973;28;20055;-76
2023/03/06 06:41:50;;;;;;;2.90;2.28;;;;;;;;;;5056580;28;20037;-76
2023/03/06 06:44:16;;;;;;;3.90;2.40;;;;;;;;;;5057112;28;20115;-76
2023/03/06 06:46:44;;;;;;;6.47;3.05;;;;;;;;;;5051760;28;20045;-76
2023/03/06 06:49:10;;;;;;;6.57;3.30;;;;;;;;;;5055029;28;20103;-75
2023/03/06 06:51:36;;;;;;;5.00;3.08;;;;;;;;;;5053455;28;20045;-76
2023/03/06 06:54:02;;;;;;;6.07;3.78;;;;;;;;;;5055969;28;20522;-76
2023/03/06 06:56:28;;;;;;;5.97;3.95;;;;;;;;;;5055802;28;20120;-76
2023/03/06 06:58:58;;;;;;;9.32;3.88;;;;;;;;;;5054302;28;20088;-75
2023/03/06 07:01:24;;;;;;;5.05;3.70;;;;;;;;;;5052881;28;20052;-76
2023/03/06 07:03:50;;;;;;;5.88;3.25;;;;;;;;;;5055726;28;20487;-76
2023/03/06 07:06:16;;;;;;;5.10;3.17;;;;;;;;;;5056218;28;20041;-76
2023/03/06 07:08:42;;;;;;;5.32;2.65;;;;;;;;;;5054810;28;20045;-76
2023/03/06 07:11:10;;;;;;;5.38;2.90;;;;;;;;;;5057409;28;20033;-76
2023/03/06 07:13:36;;;;;;;4.05;2.60;;;;;;;;;;5057558;28;20069;-76
2023/03/06 07:16:02;;;;;;;3.97;2.10;;;;;;;;;;5042151;28;20045;-76
2023/03/06 07:18:28;;;;;;;3.22;2.13;;;;;;;;;;5054630;28;20075;-76
2023/03/06 07:20:55;;;;;;;3.08;2.15;;;;;;;;;;5067450;28;20053;-76
2023/03/06 07:23:21;;;;;;;3.40;2.20;;;;;;;;;;5054849;28;20041;-76
2023/03/06 07:25:47;;;;;;;4.47;2.38;;;;;;;;;;5054740;28;20097;-76
2023/03/06 07:28:13;;;;;;;5.10;2.60;;;;;;;;;;5053821;28;20060;-77
2023/03/06 07:30:42;;;;;;;3.17;2.10;;;;;;;;;;5053693;28;20069;-76
2023/03/06 07:33:08;;;;;;;2.92;2.05;;;;;;;;;;5055652;28;20126;-76
2023/03/06 07:35:34;;;;;;;3.90;1.95;;;;;;;;;;5050743;28;20037;-76
2023/03/06 07:38:01;;;;;;;3.28;2.10;;;;;;;;;;5042206;28;20049;-76
2023/03/06 07:40:27;;;;;;;3.20;2.20;;;;;;;;;;5054786;28;20420;-76
2023/03/06 07:42:54;;;;;;;4.03;2.35;;;;;;;;;;5054593;28;20384;-76
2023/03/06 07:45:20;;;;;;;4.72;2.58;;;;;;;;;;5056102;28;20507;-76
2023/03/06 07:47:46;;;;;;;3.20;2.30;;;;;;;;;;5055590;28;20076;-76
2023/03/06 07:50:13;;;;;;;4.47;2.40;;;;;;;;;;5056022;28;20045;-77
2023/03/06 07:52:39;;;;;;;4.05;2.60;;;;;;;;;;5053948;28;20091;-76
2023/03/06 07:55:05;;;;;;;6.20;2.00;;;;;;;;;;5055544;28;20379;-76
2023/03/06 07:57:31;;;;;;;3.10;2.53;;;;;;;;;;5053311;28;20119;-75
2023/03/06 07:59:57;;;;;;;3.30;2.25;;;;;;;;;;5055893;28;20103;-77
2023/03/06 08:02:23;;;;;;;9.85;2.55;;;;;;;;;;5054457;28;20551;-77
2023/03/06 08:04:52;;;;;;;4.53;2.33;;;;;;;;;;5050980;28;20082;-76
2023/03/06 08:07:19;;;;;;;2.85;2.10;;;;;;;;;;5055445;28;20044;-78
2023/03/06 08:09:45;;;;;;;4.00;2.40;;;;;;;;;;5055266;28;20119;-76
2023/03/06 08:12:11;;;;;;;4.72;2.10;;;;;;;;;;5055609;28;20134;-77
2023/03/06 08:14:37;;;;;;;4.50;2.20;;;;;;;;;;5056880;28;20048;-78
2023/03/06 08:17:03;;;;;;;3.50;2.38;;;;;;;;;;5057413;28;20053;-77
2023/03/06 08:19:29;;;;;;;4.80;2.30;;;;;;;;;;5054918;28;20072;-77
2023/03/06 08:21:55;;;;;;;2.70;2.00;;;;;;;;;;5055292;28;20041;-77
2023/03/06 08:24:21;;;;;;;3.58;2.28;;;;;;;;;;5054982;28;20053;-77
2023/03/06 08:26:47;;;;;;;3.05;1.95;;;;;;;;;;5055205;28;20048;-77
2023/03/06 08:29:14;;;;;;;4.68;1.88;;;;;;;;;;5054675;28;20055;-77
2023/03/06 08:31:44;;;;;;;4.45;1.90;;;;;;;;;;5053417;28;20049;-76
2023/03/06 08:34:12;;;;;;;3.97;2.17;;;;;;;;;;5053943;28;20564;-76
2023/03/06 08:36:38;;;;;;;2.75;1.80;;;;;;;;;;5069405;28;20041;-78
2023/03/06 08:39:04;;;;;;;2.83;1.50;;;;;;;;;;5055246;28;20048;-78
2023/03/06 08:41:31;;;;;;;4.13;1.70;;;;;;;;;;5054171;28;20044;-77
2023/03/06 08:43:57;;;;;;;3.63;1.40;;;;;;;;;;5054641;28;20384;-77
2023/03/06 08:46:24;;;;;;;2.60;1.23;;;;;;;;;;5054686;28;20048;-78
2023/03/06 08:48:50;;;;;;;3.08;1.50;;;;;;;;;;5054573;28;20120;-78
2023/03/06 08:51:17;;;;;;;2.55;1.40;;;;;;;;;;5034720;28;20064;-77
2023/03/06 08:53:43;;;;;;;2.67;1.60;;;;;;;;;;5034629;28;20049;-78
2023/03/06 08:56:35;;;;;;;2.60;1.38;;;;;;;;;;5045445;28;20124;-77
2023/03/06 08:59:03;;;;;;;2.85;1.60;;;;;;;;;;5053116;28;20499;-78
2023/03/06 09:01:30;;;;;;;2.05;1.42;;;;;;;;;;5054234;28;20427;-77
2023/03/06 09:03:57;;;;;;;2.90;1.70;;;;;;;;;;5053914;28;20041;-77
2023/03/06 09:06:25;;;;;;;4.60;2.20;;;;;;;;;;5055215;28;20036;-77
2023/03/06 09:08:51;;;;;;;3.05;2.08;;;;;;;;;;5054399;28;20059;-77
2023/03/06 09:11:17;;;;;;;4.60;1.88;;;;;;;;;;5054498;28;20045;-77
2023/03/06 09:13:44;;;;;;;3.85;1.80;;;;;;;;;;5054257;28;20072;-77
2023/03/06 09:16:10;;;;;;;6.15;3.00;;;;;;;;;;5054157;28;20041;-78
2023/03/06 09:18:37;;;;;;;5.47;2.15;;;;;;;;;;5053670;28;20057;-78
2023/03/06 09:21:03;;;;;;;4.35;1.90;;;;;;;;;;5054651;28;20161;-78
2023/03/06 09:23:32;;;;;;;3.72;1.50;;;;;;;;;;5053875;28;20036;-77
2023/03/06 09:25:58;;;;;;;3.70;1.20;;;;;;;;;;5053774;28;20468;-78
2023/03/06 09:28:25;;;;;;;3.25;1.20;;;;;;;;;;5053771;28;20044;-78
2023/03/06 09:30:51;;;;;;;2.63;1.30;;;;;;;;;;5035988;28;20048;-78
2023/03/06 09:33:17;;;;;;;3.28;1.20;;;;;;;;;;5054384;28;20036;-78
2023/03/06 09:35:53;;;;;;;2.53;1.10;;;;;;;;;;5053979;28;20467;-77
2023/03/06 09:38:19;;;;;;;;;;;;;;;;;;5054259;28;20047;-77
2023/03/06 09:40:58;;;;;;;3.43;1.20;;;;;;;;;;5053396;28;20011;-78
2023/03/06 09:43:36;;;;;;;3.28;1.33;;;;;;;;;;5051741;28;20341;-77
2023/03/06 09:46:08;;;;;;;4.93;1.38;;;;;;;;;;5048157;28;20435;-77
2023/03/06 09:48:41;;;;;;;1.60;1.23;;;;;;;;;;5053098;28;20141;-77
2023/03/06 09:51:12;;;;;;;2.38;1.45;;;;;;;;;;5053250;28;20403;-76
2023/03/06 09:53:47;;;;;;;3.53;1.40;;;;;;;;;;5052645;28;20083;-77
2023/03/06 09:56:18;;;;;;;4.80;1.33;;;;;;;;;;5036914;28;20124;-77
2023/03/06 09:58:49;;;;;;;2.35;1.42;;;;;;;;;;5053168;28;20461;-76
2023/03/06 10:01:38;;;;;;;4.35;1.25;;;;;;;;;;5053370;28;20056;-77
2023/03/06 10:04:16;;;;;;;5.38;1.40;;;;;;;;;;5047421;28;20049;-76
2023/03/06 10:06:47;;;;;;;3.55;1.33;;;;;;;;;;5053842;28;20094;-77
2023/03/06 10:09:16;;;;;;;3.08;1.10;;;;;;;;;;5053365;28;20166;-77
2023/03/06 10:11:48;;;;;;;4.13;1.15;;;;;;;;;;5051878;28;20087;-77
2023/03/06 10:14:33;;;;;;;7.03;1.30;;;;;;;;;;5061348;28;20076;-77
2023/03/06 10:17:00;;;;;;;2.25;0.75;;;;;;;;;;5070676;28;20098;-77
2023/03/06 10:19:46;;;;;;;1.95;1.10;;;;;;;;;;5066180;28;20117;-76
2023/03/06 10:22:45;;;;;;;2.42;1.00;;;;;;;;;;5055336;28;20045;-76
2023/03/06 10:25:27;;;;;;;4.35;1.48;;;;;;;;;;5019845;28;20054;-76
2023/03/06 10:28:02;;;;;;;2.53;1.10;;;;;;;;;;5016172;28;20065;-75
2023/03/06 10:30:47;;;;;;;1.27;1.00;;;;;;;;;;5012325;28;20124;-76
2023/03/06 10:33:13;;;;;;;2.53;1.20;;;;;;;;;;4995511;28;20510;-79
2023/03/06 10:35:49;;;;;;;2.00;1.13;;;;;;;;;;5029260;28;20057;-77
2023/03/06 10:38:18;;;;;;;6.22;1.60;;;;;;;;;;4996002;28;20125;-76
2023/03/06 10:41:07;;;;;;;2.47;1.25;;;;;;;;;;5031055;28;20046;-76
2023/03/06 10:43:34;;;;;;;3.90;2.05;;;;;;;;;;5020588;28;20058;-76
2023/03/06 10:46:00;;;;;;;3.08;2.13;;;;;;;;;;5031396;28;20153;-78
2023/03/06 10:48:28;;;;;;;3.42;1.10;;;;;;;;;;5014311;28;20392;-78
2023/03/06 10:51:09;;;;;;;2.08;1.50;;;;;;;;;;5015374;28;20128;-78
2023/03/06 10:53:35;;;;;;;2.17;1.50;;;;;;;;;;5015976;28;20046;-79
2023/03/06 10:56:03;;;;;;;2.03;1.10;;;;;;;;;;5032538;28;20536;-76
2023/03/06 10:58:30;;;;;;;6.05;1.40;;;;;;;;;;5031965;28;20057;-77
2023/03/06 11:01:07;;;;;;;2.15;1.13;;;;;;;;;;5045970;28;20391;-75
2023/03/06 11:03:34;;;;;;;1.33;1.00;;;;;;;;;;5052056;28;20052;-76
2023/03/06 11:06:08;;;;;;;3.28;1.25;;;;;;;;;;5057072;28;20048;-78
2023/03/06 11:08:35;;;;;;;2.03;1.30;;;;;;;;;;5054952;28;20483;-77
2023/03/06 11:11:03;;;;;;;2.08;1.20;;;;;;;;;;5057626;28;20049;-77
2023/03/06 11:13:31;;;;;;;2.38;1.30;;;;;;;;;;5058036;28;20056;-78
2023/03/06 11:15:59;;;;;;;3.58;1.75;;;;;;;;;;5059853;28;20044;-79
2023/03/06 11:18:29;;;;;;;2.75;2.03;;;;;;;;;;5063317;28;20049;-79
2023/03/06 11:20:56;;;;;;;1.60;1.45;;;;;;;;;;5049158;28;20121;-78
2023/03/06 11:23:22;;;;;;;2.00;1.80;;;;;;;;;;5063649;28;20073;-78
2023/03/06 11:26:07;;;;;;;3.80;1.92;;;;;;;;;;5067083;28;20041;-78
2023/03/06 11:28:36;;;;;;;4.50;1.38;;;;;;;;;;5067735;28;20099;-79
2023/03/06 11:31:21;;;;;;;4.68;1.38;;;;;;;;;;5064310;28;20057;-78
2023/03/06 11:34:06;;;;;;;3.83;1.98;;;;;;;;;;5063647;28;20044;-78
2023/03/06 11:36:40;;;;;;;5.00;1.90;;;;;;;;;;5061338;28;20052;-78
2023/03/06 11:39:19;;;;;;;3.00;1.75;;;;;;;;;;5057566;28;20052;-78
2023/03/06 11:41:53;;;;;;;2.08;1.50;;;;;;;;;;5088919;28;20049;-78
2023/03/06 11:44:29;;;;;;;1.50;1.40;;;;;;;;;;5054851;28;20099;-79
2023/03/06 11:46:55;;;;;;;;;;;;;;;;;;5043980;28;20079;-78
2023/03/06 11:49:32;;;;;;;2.80;2.35;;;;;;;;;;5054095;28;20295;-79
2023/03/06 11:52:00;;;;;;;1.75;1.50;;;;;;;;;;5056441;28;20136;-79
2023/03/06 11:54:26;;;;;;;2.10;1.30;;;;;;;;;;5055233;28;20488;-78
2023/03/06 11:56:54;;;;;;;1.70;1.13;;;;;;;;;;5038432;28;20049;-78
2023/03/06 11:59:38;;;;;;;5.13;1.40;;;;;;;;;;5054269;28;20395;-79
2023/03/06 12:02:11;;;;;;;1.48;1.23;;;;;;;;;;5054480;28;20048;-78
2023/03/06 12:04:41;;;;;;;3.20;1.40;;;;;;;;;;5054144;28;20049;-79
2023/03/06 12:07:07;;;;;;;2.70;1.30;;;;;;;;;;5054662;28;20087;-79
2023/03/06 12:09:41;;;;;;;2.38;1.27;;;;;;;;;;5055388;28;20091;-78
2023/03/06 12:12:07;;;;;;;3.70;1.83;;;;;;;;;;5054728;28;20045;-78
2023/03/06 12:14:33;;;;;;;1.33;1.23;;;;;;;;;;5062361;28;20051;-78
2023/03/06 12:17:05;;;;;;;3.15;1.52;;;;;;;;;;5059334;28;20041;-82
2023/03/06 12:19:57;;;;;;;5.25;1.35;;;;;;;;;;5053982;28;20056;-78
2023/03/06 12:22:34;;;;;;;2.72;1.38;;;;;;;;;;5033432;28;20071;-79
2023/03/06 12:25:18;;;;;;;2.90;1.50;;;;;;;;;;5060016;28;20055;-78
2023/03/06 12:28:11;;;;;;;5.95;1.50;;;;;;;;;;5056909;28;20513;-78
2023/03/06 12:30:44;;;;;;;4.22;1.67;;;;;;;;;;5079263;28;20049;-78
2023/03/06 12:33:27;;;;;;;1.95;1.17;;;;;;;;;;5039400;28;20064;-78
2023/03/06 12:36:14;;;;;;;1.52;1.23;;;;;;;;;;5050626;28;20048;-78
2023/03/06 12:38:40;;;;;;;;;;;;;;;;;;5052482;28;20131;-78
2023/03/06 12:41:15;;;;;;;2.40;1.13;;;;;;;;;;5051595;28;20011;-78
2023/03/06 12:43:53;;;;;;;1.17;1.02;;;;;;;;;;5036929;28;20380;-78
2023/03/06 12:46:24;;;;;;;3.33;1.02;;;;;;;;;;5053157;28;20072;-78
2023/03/06 12:49:04;;;;;;;2.15;1.17;;;;;;;;;;5051265;28;20122;-78
2023/03/06 12:51:31;;;;;;;5.13;1.70;;;;;;;;;;5052846;28;20477;-78
2023/03/06 12:53:59;;;;;;;4.13;1.40;;;;;;;;;;5051463;28;20049;-78
2023/03/06 12:56:26;;;;;;;1.55;1.15;;;;;;;;;;5050423;28;20056;-78
2023/03/06 12:58:53;;;;;;;1.52;1.20;;;;;;;;;;5042724;28;20650;-78
2023/03/06 13:01:42;;;;;;;2.50;1.17;;;;;;;;;;5051326;28;20053;-78
2023/03/06 13:04:44;;;;;;;1.55;1.20;;;;;;;;;;5052744;28;20083;-78
2023/03/06 13:07:13;;;;;;;1.60;1.20;;;;;;;;;;5010558;28;20053;-78
2023/03/06 13:09:39;;;;;;;3.33;1.30;;;;;;;;;;5010262;28;20088;-78
2023/03/06 13:12:05;;;;;;;2.30;1.20;;;;;;;;;;4993743;28;20136;-78
2023/03/06 13:14:36;;;;;;;1.40;1.17;;;;;;;;;;5012346;28;20054;-78
2023/03/06 13:17:21;;;;;;;1.85;1.30;;;;;;;;;;5003363;28;20052;-78
2023/03/06 13:19:48;;;;;;;1.67;1.27;;;;;;;;;;5017158;28;20456;-78
2023/03/06 13:22:34;;;;;;;2.38;0.98;;;;;;;;;;5011651;28;20089;-78
2023/03/06 13:25:18;;;;;;;1.80;1.23;;;;;;;;;;5013157;28;20498;-78
2023/03/06 13:28:00;;;;;;;2.45;1.30;;;;;;;;;;4995614;28;20050;-78
2023/03/06 13:30:38;;;;;;;2.80;1.40;;;;;;;;;;5017787;28;20081;-77
2023/03/06 13:33:22;;;;;;;2.80;1.50;;;;;;;;;;5017592;28;20057;-78
2023/03/06 13:35:51;;;;;;;1.23;1.13;;;;;;;;;;4981482;28;20575;-79
2023/03/06 13:38:32;;;;;;;1.85;1.08;;;;;;;;;;5010507;28;20045;-78
2023/03/06 13:41:16;;;;;;;3.40;1.40;;;;;;;;;;5029974;28;20523;-78
2023/03/06 13:43:43;;;;;;;1.30;1.17;;;;;;;;;;5053106;28;20487;-78
2023/03/06 13:46:28;;;;;;;2.30;1.38;;;;;;;;;;5053158;28;20044;-78
2023/03/06 13:49:09;;;;;;;1.83;1.70;;;;;;;;;;5052288;28;20542;-78
2023/03/06 13:51:37;;;;;;;4.32;2.53;;;;;;;;;;5052153;28;20081;-78
2023/03/06 13:54:16;;;;;;;2.42;1.50;;;;;;;;;;5052670;28;20049;-78
2023/03/06 13:56:54;;;;;;;3.53;1.92;;;;;;;;;;5053728;28;20053;-78
2023/03/06 13:59:52;;;;;;;2.67;1.98;;;;;;;;;;5052121;28;20037;-78
2023/03/06 14:02:37;;;;;;;7.88;5.32;;;;;;;;;;5030962;28;20582;-77
2023/03/06 14:05:10;;;;;;;4.15;2.35;;;;;;;;;;5031154;28;20053;-78
2023/03/06 14:07:42;;;;;;;3.03;1.90;;;;;;;;;;5014490;28;20053;-78
2023/03/06 14:10:17;;;;;;;2.55;1.80;;;;;;;;;;5014276;28;20033;-78
2023/03/06 14:12:49;;;;;;;2.70;1.90;;;;;;;;;;5014639;28;20107;-78
2023/03/06 14:15:21;;;;;;;4.28;2.00;;;;;;;;;;5031021;28;20092;-78
2023/03/06 14:17:52;;;;;;;2.60;1.85;;;;;;;;;;5030966;28;20480;-77
2023/03/06 14:20:19;;;;;;;3.50;2.30;;;;;;;;;;5016632;28;20045;-77
2023/03/06 14:22:45;;;;;;;3.00;1.90;;;;;;;;;;5030606;28;20088;-77
2023/03/06 14:25:23;;;;;;;5.22;1.90;;;;;;;;;;5030932;28;20447;-79
2023/03/06 14:27:50;;;;;;;4.75;2.30;;;;;;;;;;5032428;28;20046;-77
2023/03/06 14:30:19;;;;;;;2.90;2.17;;;;;;;;;;5031845;28;20099;-76
2023/03/06 14:32:46;;;;;;;4.20;2.28;;;;;;;;;;5031000;28;20132;-76
2023/03/06 14:35:22;;;;;;;2.85;2.20;;;;;;;;;;5030722;28;20056;-77
2023/03/06 14:37:51;;;;;;;3.15;2.03;;;;;;;;;;5035124;28;20052;-76
2023/03/06 14:40:26;;;;;;;4.00;2.38;;;;;;;;;;5056838;28;20045;-76
2023/03/06 14:43:09;;;;;;;3.55;2.13;;;;;;;;;;5055379;28;20041;-77
2023/03/06 14:45:35;;;;;;;3.30;2.25;;;;;;;;;;5054136;28;21553;-77
2023/03/06 14:48:01;;;;;;;4.57;2.45;;;;;;;;;;5056936;28;20040;-78
2023/03/06 14:50:28;;;;;;;5.03;2.45;;;;;;;;;;5056376;28;20514;-78
2023/03/06 14:52:56;;;;;;;3.28;2.50;;;;;;;;;;5057309;28;20060;-78
2023/03/06 14:55:26;;;;;;;5.63;3.13;;;;;;;;;;5056404;28;20399;-77